sensor_id;sensor_type;location;lat;lon;timestamp;pressure;altitude;pressure_sealevel;temperature;humidity
76827;BME280;65788;52.284;20.890;2023-12-20T00:02:03;99549.83;;;19.79;41.58
76827;BME280;65788;52.284;20.890;2023-12-20T00:04:30;99548.20;;;19.72;41.62
76827;BME280;65788;52.284;20.890;2023-12-20T00:06:59;99542.61;;;19.68;41.48
76827;BME280;65788;52.284;20.890;2023-12-20T00:09:26;99547.96;;;19.61;41.56
76827;BME280;65788;52.284;20.890;2023-12-20T00:11:53;99544.08;;;19.51;41.94
76827;BME280;65788;52.284;20.890;2023-12-20T00:14:19;99538.72;;;19.37;42.19
76827;BME280;65788;52.284;20.890;2023-12-20T00:16:47;99539.29;;;19.20;42.53
76827;BME280;65788;52.284;20.890;2023-12-20T00:19:14;99539.21;;;19.12;42.64
76827;BME280;65788;52.284;20.890;2023-12-20T00:21:41;99539.74;;;19.04;42.81
76827;BME280;65788;52.284;20.890;2023-12-20T00:24:08;99536.77;;;18.99;42.87
76827;BME280;65788;52.284;20.890;2023-12-20T00:26:35;99538.22;;;18.94;42.99
76827;BME280;65788;52.284;20.890;2023-12-20T00:29:02;99543.08;;;18.88;43.10
76827;BME280;65788;52.284;20.890;2023-12-20T00:31:29;99537.99;;;18.85;43.15
76827;BME280;65788;52.284;20.890;2023-12-20T00:33:56;99535.39;;;18.83;43.15
76827;BME280;65788;52.284;20.890;2023-12-20T00:36:26;99533.27;;;18.76;43.26
76827;BME280;65788;52.284;20.890;2023-12-20T00:38:53;99530.91;;;18.70;43.41
76827;BME280;65788;52.284;20.890;2023-12-20T00:41:20;99535.09;;;18.66;43.51
76827;BME280;65788;52.284;20.890;2023-12-20T00:43:48;99529.76;;;18.63;43.54
76827;BME280;65788;52.284;20.890;2023-12-20T00:46:15;99530.16;;;18.57;43.59
76827;BME280;65788;52.284;20.890;2023-12-20T00:48:43;99528.83;;;18.57;43.63
76827;BME280;65788;52.284;20.890;2023-12-20T00:51:12;99520.90;;;18.55;43.61
76827;BME280;65788;52.284;20.890;2023-12-20T00:53:39;99519.67;;;18.51;43.67
76827;BME280;65788;52.284;20.890;2023-12-20T00:56:06;99516.78;;;18.48;43.74
76827;BME280;65788;52.284;20.890;2023-12-20T00:58:33;99515.48;;;18.47;43.70
76827;BME280;65788;52.284;20.890;2023-12-20T01:01:02;99517.40;;;18.41;43.79
76827;BME280;65788;52.284;20.890;2023-12-20T01:03:29;99511.30;;;18.42;43.77
76827;BME280;65788;52.284;20.890;2023-12-20T01:05:57;99508.83;;;18.40;43.82
76827;BME280;65788;52.284;20.890;2023-12-20T01:08:24;99517.04;;;18.34;43.89
76827;BME280;65788;52.284;20.890;2023-12-20T01:10:50;99518.43;;;18.33;43.93
76827;BME280;65788;52.284;20.890;2023-12-20T01:13:17;99514.42;;;18.33;43.92
76827;BME280;65788;52.284;20.890;2023-12-20T01:15:44;99514.02;;;18.31;43.95
76827;BME280;65788;52.284;20.890;2023-12-20T01:18:11;99511.71;;;18.30;43.99
76827;BME280;65788;52.284;20.890;2023-12-20T01:20:38;99515.27;;;18.28;44.03
76827;BME280;65788;52.284;20.890;2023-12-20T01:23:05;99515.58;;;18.25;44.06
76827;BME280;65788;52.284;20.890;2023-12-20T01:25:35;99509.62;;;18.24;44.08
76827;BME280;65788;52.284;20.890;2023-12-20T01:28:02;99502.41;;;18.21;44.07
76827;BME280;65788;52.284;20.890;2023-12-20T01:30:30;99502.38;;;18.18;44.15
76827;BME280;65788;52.284;20.890;2023-12-20T01:32:57;99497.61;;;18.18;44.15
76827;BME280;65788;52.284;20.890;2023-12-20T01:35:23;99499.04;;;18.17;44.15
76827;BME280;65788;52.284;20.890;2023-12-20T01:37:50;99493.86;;;18.17;44.13
76827;BME280;65788;52.284;20.890;2023-12-20T01:40:19;99489.34;;;18.15;44.14
76827;BME280;65788;52.284;20.890;2023-12-20T01:42:46;99489.40;;;18.11;44.24
76827;BME280;65788;52.284;20.890;2023-12-20T01:45:13;99492.34;;;18.09;44.31
76827;BME280;65788;52.284;20.890;2023-12-20T01:47:40;99492.59;;;18.08;44.30
76827;BME280;65788;52.284;20.890;2023-12-20T01:50:08;99495.29;;;18.07;44.30
76827;BME280;65788;52.284;20.890;2023-12-20T01:52:35;99488.48;;;18.07;44.29
76827;BME280;65788;52.284;20.890;2023-12-20T01:55:04;99488.17;;;18.09;44.27
76827;BME280;65788;52.284;20.890;2023-12-20T01:57:37;99485.20;;;18.07;44.30
76827;BME280;65788;52.284;20.890;2023-12-20T02:00:05;99482.54;;;18.06;44.31
76827;BME280;65788;52.284;20.890;2023-12-20T02:02:39;99478.52;;;18.05;44.32
76827;BME280;65788;52.284;20.890;2023-12-20T02:05:06;99479.53;;;18.05;44.30
76827;BME280;65788;52.284;20.890;2023-12-20T02:07:34;99480.07;;;18.03;44.32
76827;BME280;65788;52.284;20.890;2023-12-20T02:10:06;99476.32;;;18.02;44.33
76827;BME280;65788;52.284;20.890;2023-12-20T02:12:35;99474.80;;;18.03;44.32
76827;BME280;65788;52.284;20.890;2023-12-20T02:15:05;99471.17;;;18.00;44.42
76827;BME280;65788;52.284;20.890;2023-12-20T02:17:33;99469.66;;;18.01;44.37
76827;BME280;65788;52.284;20.890;2023-12-20T02:20:00;99467.22;;;18.01;44.38
76827;BME280;65788;52.284;20.890;2023-12-20T02:22:29;99464.70;;;18.00;44.39
76827;BME280;65788;52.284;20.890;2023-12-20T02:24:57;99459.66;;;18.00;44.37
76827;BME280;65788;52.284;20.890;2023-12-20T02:27:24;99461.94;;;17.99;44.40
76827;BME280;65788;52.284;20.890;2023-12-20T02:29:51;99458.48;;;17.97;44.47
76827;BME280;65788;52.284;20.890;2023-12-20T02:32:18;99456.29;;;17.96;44.49
76827;BME280;65788;52.284;20.890;2023-12-20T02:34:47;99446.60;;;17.94;44.52
76827;BME280;65788;52.284;20.890;2023-12-20T02:37:15;99444.09;;;17.94;44.58
76827;BME280;65788;52.284;20.890;2023-12-20T02:39:42;99449.60;;;17.95;44.55
76827;BME280;65788;52.284;20.890;2023-12-20T02:42:11;99447.96;;;17.94;44.58
76827;BME280;65788;52.284;20.890;2023-12-20T02:44:38;99442.27;;;17.94;44.60
76827;BME280;65788;52.284;20.890;2023-12-20T02:47:05;99443.49;;;17.93;44.64
76827;BME280;65788;52.284;20.890;2023-12-20T02:49:32;99440.61;;;17.91;44.69
76827;BME280;65788;52.284;20.890;2023-12-20T02:51:58;99440.20;;;17.90;44.71
76827;BME280;65788;52.284;20.890;2023-12-20T02:54:25;99435.20;;;17.89;44.73
76827;BME280;65788;52.284;20.890;2023-12-20T02:56:52;99433.44;;;17.89;44.71
76827;BME280;65788;52.284;20.890;2023-12-20T02:59:19;99433.16;;;17.90;44.70
76827;BME280;65788;52.284;20.890;2023-12-20T03:01:46;99438.84;;;17.87;44.75
76827;BME280;65788;52.284;20.890;2023-12-20T03:04:13;99436.50;;;17.86;44.75
76827;BME280;65788;52.284;20.890;2023-12-20T03:06:42;99431.23;;;17.86;44.75
76827;BME280;65788;52.284;20.890;2023-12-20T03:09:09;99426.48;;;17.86;44.74
76827;BME280;65788;52.284;20.890;2023-12-20T03:11:37;99429.42;;;17.84;44.76
76827;BME280;65788;52.284;20.890;2023-12-20T03:14:04;99431.10;;;17.83;44.78
76827;BME280;65788;52.284;20.890;2023-12-20T03:16:31;99423.52;;;17.83;44.77
76827;BME280;65788;52.284;20.890;2023-12-20T03:18:59;99416.67;;;17.83;44.78
76827;BME280;65788;52.284;20.890;2023-12-20T03:21:26;99414.80;;;17.81;44.85
76827;BME280;65788;52.284;20.890;2023-12-20T03:23:53;99430.30;;;17.80;44.86
76827;BME280;65788;52.284;20.890;2023-12-20T03:26:20;99433.63;;;17.78;44.88
76827;BME280;65788;52.284;20.890;2023-12-20T03:28:48;99430.25;;;17.80;44.83
76827;BME280;65788;52.284;20.890;2023-12-20T03:31:15;99433.86;;;17.78;44.92
76827;BME280;65788;52.284;20.890;2023-12-20T03:33:42;99423.22;;;17.78;44.92
76827;BME280;65788;52.284;20.890;2023-12-20T03:36:09;99419.38;;;17.79;44.87
76827;BME280;65788;52.284;20.890;2023-12-20T03:38:36;99425.06;;;17.77;44.96
76827;BME280;65788;52.284;20.890;2023-12-20T03:41:04;99419.67;;;17.76;44.96
76827;BME280;65788;52.284;20.890;2023-12-20T03:43:31;99413.70;;;17.76;44.95
76827;BME280;65788;52.284;20.890;2023-12-20T03:45:58;99414.65;;;17.76;44.97
76827;BME280;65788;52.284;20.890;2023-12-20T03:48:26;99415.27;;;17.77;44.97
76827;BME280;65788;52.284;20.890;2023-12-20T03:50:53;99413.80;;;17.78;44.99
76827;BME280;65788;52.284;20.890;2023-12-20T03:53:20;99417.15;;;17.77;45.06
76827;BME280;65788;52.284;20.890;2023-12-20T03:55:47;99421.27;;;17.75;45.15
76827;BME280;65788;52.284;20.890;2023-12-20T03:58:14;99421.47;;;17.75;45.16
76827;BME280;65788;52.284;20.890;2023-12-20T04:00:41;99413.53;;;17.73;45.29
76827;BME280;65788;52.284;20.890;2023-12-20T04:03:08;99406.16;;;17.73;45.30
76827;BME280;65788;52.284;20.890;2023-12-20T04:05:36;99403.83;;;17.73;45.36
76827;BME280;65788;52.284;20.890;2023-12-20T04:08:03;99411.70;;;17.73;45.37
76827;BME280;65788;52.284;20.890;2023-12-20T04:10:30;99418.52;;;17.73;45.40
76827;BME280;65788;52.284;20.890;2023-12-20T04:12:58;99414.98;;;17.73;45.44
76827;BME280;65788;52.284;20.890;2023-12-20T04:15:24;99411.59;;;17.75;45.43
76827;BME280;65788;52.284;20.890;2023-12-20T04:17:51;99414.21;;;17.74;45.46
76827;BME280;65788;52.284;20.890;2023-12-20T04:20:18;99418.70;;;17.72;45.52
76827;BME280;65788;52.284;20.890;2023-12-20T04:22:46;99416.23;;;17.71;45.80
76827;BME280;65788;52.284;20.890;2023-12-20T04:25:13;99411.54;;;17.73;46.15
76827;BME280;65788;52.284;20.890;2023-12-20T04:27:40;99409.95;;;17.74;46.31
76827;BME280;65788;52.284;20.890;2023-12-20T04:30:10;99411.20;;;17.73;46.40
76827;BME280;65788;52.284;20.890;2023-12-20T04:32:37;99419.41;;;17.73;46.59
76827;BME280;65788;52.284;20.890;2023-12-20T04:35:05;99416.93;;;17.74;46.61
76827;BME280;65788;52.284;20.890;2023-12-20T04:37:32;99413.80;;;17.73;46.69
76827;BME280;65788;52.284;20.890;2023-12-20T04:39:59;99417.77;;;17.71;46.80
76827;BME280;65788;52.284;20.890;2023-12-20T04:42:28;99415.49;;;17.72;46.76
76827;BME280;65788;52.284;20.890;2023-12-20T04:44:55;99417.44;;;17.71;46.85
76827;BME280;65788;52.284;20.890;2023-12-20T04:47:22;99417.25;;;17.72;46.81
76827;BME280;65788;52.284;20.890;2023-12-20T04:49:49;99417.95;;;17.71;46.85
76827;BME280;65788;52.284;20.890;2023-12-20T04:52:16;99417.35;;;17.71;46.80
76827;BME280;65788;52.284;20.890;2023-12-20T04:54:43;99416.39;;;17.77;46.61
76827;BME280;65788;52.284;20.890;2023-12-20T04:57:10;99420.35;;;17.81;46.47
76827;BME280;65788;52.284;20.890;2023-12-20T04:59:37;99411.58;;;17.88;46.30
76827;BME280;65788;52.284;20.890;2023-12-20T05:02:04;99410.35;;;17.95;46.11
76827;BME280;65788;52.284;20.890;2023-12-20T05:04:31;99412.37;;;18.04;45.88
76827;BME280;65788;52.284;20.890;2023-12-20T05:06:58;99402.13;;;18.13;45.65
76827;BME280;65788;52.284;20.890;2023-12-20T05:09:25;99394.37;;;18.22;45.47
76827;BME280;65788;52.284;20.890;2023-12-20T05:11:52;99397.84;;;18.30;45.30
76827;BME280;65788;52.284;20.890;2023-12-20T05:14:19;99398.16;;;18.36;45.13
76827;BME280;65788;52.284;20.890;2023-12-20T05:16:46;99390.08;;;18.44;44.99
76827;BME280;65788;52.284;20.890;2023-12-20T05:19:13;99381.13;;;18.50;44.83
76827;BME280;65788;52.284;20.890;2023-12-20T05:21:43;99386.06;;;18.57;44.68
76827;BME280;65788;52.284;20.890;2023-12-20T05:24:10;99384.79;;;18.64;44.50
76827;BME280;65788;52.284;20.890;2023-12-20T05:26:37;99383.59;;;18.70;44.38
76827;BME280;65788;52.284;20.890;2023-12-20T05:29:04;99385.84;;;18.74;44.27
76827;BME280;65788;52.284;20.890;2023-12-20T05:31:31;99380.94;;;18.79;44.17
76827;BME280;65788;52.284;20.890;2023-12-20T05:33:58;99380.98;;;18.83;44.07
76827;BME280;65788;52.284;20.890;2023-12-20T05:36:27;99385.03;;;18.85;44.02
76827;BME280;65788;52.284;20.890;2023-12-20T05:38:53;99383.73;;;18.89;43.95
76827;BME280;65788;52.284;20.890;2023-12-20T05:41:20;99381.69;;;18.94;43.84
76827;BME280;65788;52.284;20.890;2023-12-20T05:43:49;99385.98;;;18.98;43.73
76827;BME280;65788;52.284;20.890;2023-12-20T05:46:16;99382.20;;;19.01;43.67
76827;BME280;65788;52.284;20.890;2023-12-20T05:48:43;99375.86;;;19.03;43.65
76827;BME280;65788;52.284;20.890;2023-12-20T05:51:13;99376.43;;;19.07;43.58
76827;BME280;65788;52.284;20.890;2023-12-20T05:53:39;99371.13;;;19.10;43.53
76827;BME280;65788;52.284;20.890;2023-12-20T05:56:06;99370.73;;;19.14;43.46
76827;BME280;65788;52.284;20.890;2023-12-20T05:58:33;99371.13;;;19.16;43.40
76827;BME280;65788;52.284;20.890;2023-12-20T06:01:00;99372.18;;;19.19;43.36
76827;BME280;65788;52.284;20.890;2023-12-20T06:03:28;99366.59;;;19.22;43.30
76827;BME280;65788;52.284;20.890;2023-12-20T06:05:57;99367.84;;;19.24;43.27
76827;BME280;65788;52.284;20.890;2023-12-20T06:08:24;99369.05;;;19.28;43.21
76827;BME280;65788;52.284;20.890;2023-12-20T06:10:53;99374.19;;;19.30;43.16
76827;BME280;65788;52.284;20.890;2023-12-20T06:13:20;99380.18;;;19.33;43.13
76827;BME280;65788;52.284;20.890;2023-12-20T06:15:47;99380.30;;;19.36;43.07
76827;BME280;65788;52.284;20.890;2023-12-20T06:18:14;99378.64;;;19.39;43.02
76827;BME280;65788;52.284;20.890;2023-12-20T06:20:41;99379.45;;;19.41;42.98
76827;BME280;65788;52.284;20.890;2023-12-20T06:23:08;99378.07;;;19.45;42.95
76827;BME280;65788;52.284;20.890;2023-12-20T06:25:35;99378.45;;;19.47;42.91
76827;BME280;65788;52.284;20.890;2023-12-20T06:28:02;99381.52;;;19.50;42.83
76827;BME280;65788;52.284;20.890;2023-12-20T06:30:29;99381.38;;;19.52;42.78
76827;BME280;65788;52.284;20.890;2023-12-20T06:32:56;99382.81;;;19.55;42.71
76827;BME280;65788;52.284;20.890;2023-12-20T06:35:26;99385.44;;;19.56;42.72
76827;BME280;65788;52.284;20.890;2023-12-20T06:37:53;99386.36;;;19.57;42.72
76827;BME280;65788;52.284;20.890;2023-12-20T06:40:20;99384.52;;;19.59;42.67
76827;BME280;65788;52.284;20.890;2023-12-20T06:42:48;99382.67;;;19.62;42.62
76827;BME280;65788;52.284;20.890;2023-12-20T06:45:15;99384.89;;;19.64;42.58
76827;BME280;65788;52.284;20.890;2023-12-20T06:47:45;99389.84;;;19.65;42.61
76827;BME280;65788;52.284;20.890;2023-12-20T06:50:12;99389.32;;;19.68;42.42
76827;BME280;65788;52.284;20.890;2023-12-20T06:52:39;99389.70;;;19.70;42.50
76827;BME280;65788;52.284;20.890;2023-12-20T06:55:07;99388.48;;;19.70;42.47
76827;BME280;65788;52.284;20.890;2023-12-20T06:57:34;99384.48;;;19.72;42.45
76827;BME280;65788;52.284;20.890;2023-12-20T07:00:04;99387.08;;;19.76;42.39
76827;BME280;65788;52.284;20.890;2023-12-20T07:02:31;99385.30;;;19.79;42.32
76827;BME280;65788;52.284;20.890;2023-12-20T07:04:58;99384.76;;;19.79;42.32
76827;BME280;65788;52.284;20.890;2023-12-20T07:07:25;99381.33;;;19.79;42.33
76827;BME280;65788;52.284;20.890;2023-12-20T07:09:53;99377.21;;;19.81;42.31
76827;BME280;65788;52.284;20.890;2023-12-20T07:12:20;99378.30;;;19.82;42.30
76827;BME280;65788;52.284;20.890;2023-12-20T07:14:46;99380.05;;;19.84;42.28
76827;BME280;65788;52.284;20.890;2023-12-20T07:17:14;99380.58;;;19.85;42.26
76827;BME280;65788;52.284;20.890;2023-12-20T07:19:42;99382.83;;;19.87;42.23
76827;BME280;65788;52.284;20.890;2023-12-20T07:22:09;99385.34;;;19.88;42.22
76827;BME280;65788;52.284;20.890;2023-12-20T07:24:36;99390.23;;;19.91;42.18
76827;BME280;65788;52.284;20.890;2023-12-20T07:27:03;99393.52;;;19.92;42.16
76827;BME280;65788;52.284;20.890;2023-12-20T07:29:30;99391.34;;;19.94;42.12
76827;BME280;65788;52.284;20.890;2023-12-20T07:31:57;99391.54;;;19.95;42.07
76827;BME280;65788;52.284;20.890;2023-12-20T07:34:24;99387.86;;;19.96;42.06
76827;BME280;65788;52.284;20.890;2023-12-20T07:36:51;99386.83;;;19.97;42.01
76827;BME280;65788;52.284;20.890;2023-12-20T07:39:18;99387.38;;;19.97;42.01
76827;BME280;65788;52.284;20.890;2023-12-20T07:41:45;99389.68;;;19.98;41.99
76827;BME280;65788;52.284;20.890;2023-12-20T07:44:12;99384.41;;;19.98;41.96
76827;BME280;65788;52.284;20.890;2023-12-20T07:46:39;99386.79;;;19.98;41.96
76827;BME280;65788;52.284;20.890;2023-12-20T07:49:07;99389.02;;;19.96;41.99
76827;BME280;65788;52.284;20.890;2023-12-20T07:51:35;99385.36;;;19.92;42.08
76827;BME280;65788;52.284;20.890;2023-12-20T07:54:02;99385.45;;;19.88;42.23
76827;BME280;65788;52.284;20.890;2023-12-20T07:56:30;99385.39;;;19.84;42.63
76827;BME280;65788;52.284;20.890;2023-12-20T07:58:57;99381.05;;;19.79;42.93
76827;BME280;65788;52.284;20.890;2023-12-20T08:01:24;99380.91;;;19.75;43.10
76827;BME280;65788;52.284;20.890;2023-12-20T08:03:51;99379.39;;;19.73;43.24
76827;BME280;65788;52.284;20.890;2023-12-20T08:06:18;99380.20;;;19.66;43.45
76827;BME280;65788;52.284;20.890;2023-12-20T08:08:45;99385.73;;;19.62;43.66
76827;BME280;65788;52.284;20.890;2023-12-20T08:11:14;99380.27;;;19.58;43.85
76827;BME280;65788;52.284;20.890;2023-12-20T08:13:44;99379.52;;;19.57;44.01
76827;BME280;65788;52.284;20.890;2023-12-20T08:16:13;99379.36;;;19.55;44.11
76827;BME280;65788;52.284;20.890;2023-12-20T08:18:42;99378.05;;;19.49;44.36
76827;BME280;65788;52.284;20.890;2023-12-20T08:21:09;99379.27;;;19.46;44.47
76827;BME280;65788;52.284;20.890;2023-12-20T08:23:36;99379.06;;;19.44;44.70
76827;BME280;65788;52.284;20.890;2023-12-20T08:26:06;99379.47;;;19.39;44.83
76827;BME280;65788;52.284;20.890;2023-12-20T08:28:34;99378.04;;;19.34;44.90
76827;BME280;65788;52.284;20.890;2023-12-20T08:31:01;99373.95;;;19.30;44.87
76827;BME280;65788;52.284;20.890;2023-12-20T08:33:28;99373.00;;;19.27;44.90
76827;BME280;65788;52.284;20.890;2023-12-20T08:35:54;99367.69;;;19.25;44.79
76827;BME280;65788;52.284;20.890;2023-12-20T08:38:21;99366.42;;;19.22;44.73
76827;BME280;65788;52.284;20.890;2023-12-20T08:40:48;99365.22;;;19.21;44.70
76827;BME280;65788;52.284;20.890;2023-12-20T08:43:15;99371.77;;;19.17;44.66
76827;BME280;65788;52.284;20.890;2023-12-20T08:45:42;99368.55;;;19.15;44.67
76827;BME280;65788;52.284;20.890;2023-12-20T08:48:09;99366.05;;;19.10;44.75
76827;BME280;65788;52.284;20.890;2023-12-20T08:50:36;99370.42;;;19.09;44.98
76827;BME280;65788;52.284;20.890;2023-12-20T08:53:03;99370.79;;;19.07;45.20
76827;BME280;65788;52.284;20.890;2023-12-20T08:55:30;99370.36;;;19.08;45.22
76827;BME280;65788;52.284;20.890;2023-12-20T08:57:58;99370.91;;;19.05;45.25
76827;BME280;65788;52.284;20.890;2023-12-20T09:00:25;99369.72;;;19.01;45.33
76827;BME280;65788;52.284;20.890;2023-12-20T09:02:54;99371.09;;;18.98;45.45
76827;BME280;65788;52.284;20.890;2023-12-20T09:05:21;99369.51;;;18.97;45.44
76827;BME280;65788;52.284;20.890;2023-12-20T09:07:51;99366.06;;;18.96;45.40
76827;BME280;65788;52.284;20.890;2023-12-20T09:10:23;99359.84;;;18.93;45.53
76827;BME280;65788;52.284;20.890;2023-12-20T09:12:53;99353.88;;;18.89;45.62
76827;BME280;65788;52.284;20.890;2023-12-20T09:15:24;99356.91;;;18.89;45.52
76827;BME280;65788;52.284;20.890;2023-12-20T09:17:52;99352.21;;;18.86;45.52
76827;BME280;65788;52.284;20.890;2023-12-20T09:20:19;99347.23;;;18.86;45.36
76827;BME280;65788;52.284;20.890;2023-12-20T09:22:46;99344.78;;;18.83;45.31
76827;BME280;65788;52.284;20.890;2023-12-20T09:25:19;99341.23;;;19.17;46.68
76827;BME280;65788;52.284;20.890;2023-12-20T09:27:48;99339.56;;;19.39;45.71
76827;BME280;65788;52.284;20.890;2023-12-20T09:30:19;99334.59;;;19.49;45.05
76827;BME280;65788;52.284;20.890;2023-12-20T09:32:46;99332.12;;;19.56;45.07
76827;BME280;65788;52.284;20.890;2023-12-20T09:35:13;99331.73;;;19.63;46.05
76827;BME280;65788;52.284;20.890;2023-12-20T09:37:41;99328.18;;;19.72;45.15
76827;BME280;65788;52.284;20.890;2023-12-20T09:40:13;99329.61;;;19.86;45.48
76827;BME280;65788;52.284;20.890;2023-12-20T09:42:58;99327.71;;;19.98;45.56
76827;BME280;65788;52.284;20.890;2023-12-20T09:45:25;99330.02;;;20.07;45.63
76827;BME280;65788;52.284;20.890;2023-12-20T09:47:53;99326.66;;;20.16;44.66
76827;BME280;65788;52.284;20.890;2023-12-20T09:50:23;99326.44;;;20.30;44.51
76827;BME280;65788;52.284;20.890;2023-12-20T09:52:52;99324.51;;;20.32;43.82
76827;BME280;65788;52.284;20.890;2023-12-20T09:55:20;99324.77;;;20.31;43.60
76827;BME280;65788;52.284;20.890;2023-12-20T09:57:47;99321.49;;;20.31;43.30
76827;BME280;65788;52.284;20.890;2023-12-20T10:00:15;99319.11;;;20.35;43.55
76827;BME280;65788;52.284;20.890;2023-12-20T10:05:34;99315.23;;;20.35;42.74
76827;BME280;65788;52.284;20.890;2023-12-20T10:08:05;99310.79;;;20.47;43.52
76827;BME280;65788;52.284;20.890;2023-12-20T10:10:32;99310.70;;;20.53;43.52
76827;BME280;65788;52.284;20.890;2023-12-20T10:13:07;99312.08;;;20.56;43.52
76827;BME280;65788;52.284;20.890;2023-12-20T10:15:36;99314.66;;;20.58;43.13
76827;BME280;65788;52.284;20.890;2023-12-20T10:18:04;99310.63;;;20.56;42.68
76827;BME280;65788;52.284;20.890;2023-12-20T10:20:31;99308.41;;;20.64;42.79
76827;BME280;65788;52.284;20.890;2023-12-20T10:23:00;99302.98;;;20.63;43.10
76827;BME280;65788;52.284;20.890;2023-12-20T10:25:27;99301.10;;;20.68;42.69
76827;BME280;65788;52.284;20.890;2023-12-20T10:28:14;99298.59;;;20.68;41.91
76827;BME280;65788;52.284;20.890;2023-12-20T10:30:42;99295.48;;;20.61;41.75
76827;BME280;65788;52.284;20.890;2023-12-20T10:33:09;99291.98;;;20.77;43.16
76827;BME280;65788;52.284;20.890;2023-12-20T10:35:37;99290.05;;;20.67;42.78
76827;BME280;65788;52.284;20.890;2023-12-20T10:38:05;99286.11;;;20.71;42.60
76827;BME280;65788;52.284;20.890;2023-12-20T10:40:34;99285.79;;;20.72;42.61
76827;BME280;65788;52.284;20.890;2023-12-20T10:43:05;99285.50;;;20.71;42.61
76827;BME280;65788;52.284;20.890;2023-12-20T10:45:32;99286.98;;;20.70;42.26
76827;BME280;65788;52.284;20.890;2023-12-20T10:47:59;99291.73;;;20.78;42.54
76827;BME280;65788;52.284;20.890;2023-12-20T10:50:29;99298.39;;;20.75;42.09
76827;BME280;65788;52.284;20.890;2023-12-20T10:52:58;99299.15;;;20.73;42.25
76827;BME280;65788;52.284;20.890;2023-12-20T10:55:25;99294.77;;;20.77;41.89
76827;BME280;65788;52.284;20.890;2023-12-20T10:58:06;99294.58;;;20.75;41.95
76827;BME280;65788;52.284;20.890;2023-12-20T11:00:40;99282.15;;;20.71;41.64
76827;BME280;65788;52.284;20.890;2023-12-20T11:03:11;99277.95;;;20.64;41.67
76827;BME280;65788;52.284;20.890;2023-12-20T11:05:59;99273.27;;;20.63;41.68
76827;BME280;65788;52.284;20.890;2023-12-20T11:08:37;99267.32;;;20.71;41.50
76827;BME280;65788;52.284;20.890;2023-12-20T11:13:44;99263.69;;;20.54;41.57
76827;BME280;65788;52.284;20.890;2023-12-20T11:16:15;99259.23;;;20.65;41.24
76827;BME280;65788;52.284;20.890;2023-12-20T11:18:46;99258.23;;;20.57;41.74
76827;BME280;65788;52.284;20.890;2023-12-20T11:21:15;99244.64;;;20.64;41.48
76827;BME280;65788;52.284;20.890;2023-12-20T11:23:42;99240.02;;;20.59;41.67
76827;BME280;65788;52.284;20.890;2023-12-20T11:26:11;99239.48;;;20.57;41.71
76827;BME280;65788;52.284;20.890;2023-12-20T11:28:42;99245.20;;;20.52;41.65
76827;BME280;65788;52.284;20.890;2023-12-20T11:31:13;99242.52;;;20.53;41.45
76827;BME280;65788;52.284;20.890;2023-12-20T11:33:46;99236.23;;;20.53;41.51
76827;BME280;65788;52.284;20.890;2023-12-20T11:36:19;99240.54;;;20.56;41.66
76827;BME280;65788;52.284;20.890;2023-12-20T11:38:58;99235.59;;;20.56;41.33
76827;BME280;65788;52.284;20.890;2023-12-20T11:41:32;99232.30;;;20.51;41.38
76827;BME280;65788;52.284;20.890;2023-12-20T11:44:00;99230.73;;;20.54;41.51
76827;BME280;65788;52.284;20.890;2023-12-20T11:46:28;99225.40;;;20.51;41.31
76827;BME280;65788;52.284;20.890;2023-12-20T11:48:55;99216.23;;;20.50;41.24
76827;BME280;65788;52.284;20.890;2023-12-20T11:51:22;99217.90;;;20.50;41.53
76827;BME280;65788;52.284;20.890;2023-12-20T11:53:52;99214.55;;;20.49;41.35
76827;BME280;65788;52.284;20.890;2023-12-20T11:56:20;99209.16;;;20.46;41.26
76827;BME280;65788;52.284;20.890;2023-12-20T11:58:47;99209.16;;;20.45;41.23
76827;BME280;65788;52.284;20.890;2023-12-20T12:01:15;99208.63;;;20.42;41.28
76827;BME280;65788;52.284;20.890;2023-12-20T12:03:42;99205.40;;;20.38;41.42
76827;BME280;65788;52.284;20.890;2023-12-20T12:06:09;99207.16;;;20.50;42.07
76827;BME280;65788;52.284;20.890;2023-12-20T12:08:37;99207.79;;;20.42;41.15
76827;BME280;65788;52.284;20.890;2023-12-20T12:11:05;99205.27;;;20.37;41.18
76827;BME280;65788;52.284;20.890;2023-12-20T12:13:33;99207.70;;;20.34;41.24
76827;BME280;65788;52.284;20.890;2023-12-20T12:16:00;99201.23;;;20.24;41.37
76827;BME280;65788;52.284;20.890;2023-12-20T12:18:27;99201.27;;;20.20;41.41
76827;BME280;65788;52.284;20.890;2023-12-20T12:21:01;99196.31;;;20.26;40.94
76827;BME280;65788;52.284;20.890;2023-12-20T12:23:31;99194.97;;;20.22;41.30
76827;BME280;65788;52.284;20.890;2023-12-20T12:25:58;99197.83;;;20.28;41.18
76827;BME280;65788;52.284;20.890;2023-12-20T12:28:30;99194.52;;;20.29;41.36
76827;BME280;65788;52.284;20.890;2023-12-20T12:31:14;99195.45;;;20.32;41.07
76827;BME280;65788;52.284;20.890;2023-12-20T12:33:51;99180.40;;;20.30;41.10
76827;BME280;65788;52.284;20.890;2023-12-20T12:36:20;99176.42;;;20.31;41.12
76827;BME280;65788;52.284;20.890;2023-12-20T12:38:48;99175.58;;;20.39;41.10
76827;BME280;65788;52.284;20.890;2023-12-20T12:41:18;99182.41;;;20.57;41.04
76827;BME280;65788;52.284;20.890;2023-12-20T12:43:44;99183.16;;;20.50;40.75
76827;BME280;65788;52.284;20.890;2023-12-20T12:46:12;99183.56;;;20.46;40.72
76827;BME280;65788;52.284;20.890;2023-12-20T12:48:39;99182.85;;;20.48;40.62
76827;BME280;65788;52.284;20.890;2023-12-20T12:51:06;99183.34;;;20.46;40.57
76827;BME280;65788;52.284;20.890;2023-12-20T12:53:38;99187.42;;;20.44;40.56
76827;BME280;65788;52.284;20.890;2023-12-20T12:56:06;99190.42;;;20.44;40.51
76827;BME280;65788;52.284;20.890;2023-12-20T12:58:42;99188.89;;;20.42;40.52
76827;BME280;65788;52.284;20.890;2023-12-20T13:01:09;99183.58;;;20.44;40.44